sensor_id;sensor_type;location;lat;lon;timestamp;temperature;humidity
27266;DHT22;14766;51.380;13.762;2023-08-12T00:00:34;23.30;53.20
27266;DHT22;14766;51.380;13.762;2023-08-12T00:03:03;23.20;53.10
27266;DHT22;14766;51.380;13.762;2023-08-12T00:05:30;23.20;53.20
27266;DHT22;14766;51.380;13.762;2023-08-12T00:07:57;23.20;53.20
27266;DHT22;14766;51.380;13.762;2023-08-12T00:10:24;23.20;53.20
27266;DHT22;14766;51.380;13.762;2023-08-12T00:12:51;23.20;53.30
27266;DHT22;14766;51.380;13.762;2023-08-12T00:15:18;23.10;53.30
27266;DHT22;14766;51.380;13.762;2023-08-12T00:17:45;23.10;53.40
27266;DHT22;14766;51.380;13.762;2023-08-12T00:20:13;23.10;53.40
27266;DHT22;14766;51.380;13.762;2023-08-12T00:22:40;23.10;53.50
27266;DHT22;14766;51.380;13.762;2023-08-12T00:25:08;23.00;53.40
27266;DHT22;14766;51.380;13.762;2023-08-12T00:27:35;23.10;53.60
27266;DHT22;14766;51.380;13.762;2023-08-12T00:30:02;23.00;53.50
27266;DHT22;14766;51.380;13.762;2023-08-12T00:32:29;23.00;53.50
27266;DHT22;14766;51.380;13.762;2023-08-12T00:34:56;23.00;53.50
27266;DHT22;14766;51.380;13.762;2023-08-12T00:37:23;22.90;53.50
27266;DHT22;14766;51.380;13.762;2023-08-12T00:39:51;23.00;53.60
27266;DHT22;14766;51.380;13.762;2023-08-12T00:42:19;22.90;53.50
27266;DHT22;14766;51.380;13.762;2023-08-12T00:44:45;22.90;53.60
27266;DHT22;14766;51.380;13.762;2023-08-12T00:47:13;22.90;53.50
27266;DHT22;14766;51.380;13.762;2023-08-12T00:49:41;22.90;53.60
27266;DHT22;14766;51.380;13.762;2023-08-12T00:52:14;22.90;53.60
27266;DHT22;14766;51.380;13.762;2023-08-12T00:54:42;22.90;53.60
27266;DHT22;14766;51.380;13.762;2023-08-12T00:57:09;22.80;53.60
27266;DHT22;14766;51.380;13.762;2023-08-12T00:59:36;22.80;53.70
27266;DHT22;14766;51.380;13.762;2023-08-12T01:02:04;22.80;53.70
27266;DHT22;14766;51.380;13.762;2023-08-12T01:04:32;22.80;53.70
27266;DHT22;14766;51.380;13.762;2023-08-12T01:06:59;22.70;53.80
27266;DHT22;14766;51.380;13.762;2023-08-12T01:09:27;22.70;53.90
27266;DHT22;14766;51.380;13.762;2023-08-12T01:14:56;22.70;53.90
27266;DHT22;14766;51.380;13.762;2023-08-12T01:17:27;22.60;54.00
27266;DHT22;14766;51.380;13.762;2023-08-12T01:19:56;22.60;53.90
27266;DHT22;14766;51.380;13.762;2023-08-12T01:22:23;22.60;54.00
27266;DHT22;14766;51.380;13.762;2023-08-12T01:24:54;22.60;54.10
27266;DHT22;14766;51.380;13.762;2023-08-12T01:27:22;22.50;54.20
27266;DHT22;14766;51.380;13.762;2023-08-12T01:29:50;22.50;54.20
27266;DHT22;14766;51.380;13.762;2023-08-12T01:37:40;22.50;54.50
27266;DHT22;14766;51.380;13.762;2023-08-12T01:40:09;22.50;54.40
27266;DHT22;14766;51.380;13.762;2023-08-12T01:42:39;22.50;54.40
27266;DHT22;14766;51.380;13.762;2023-08-12T01:45:06;22.40;54.40
27266;DHT22;14766;51.380;13.762;2023-08-12T01:47:34;22.40;54.50
27266;DHT22;14766;51.380;13.762;2023-08-12T01:50:01;22.40;54.50
27266;DHT22;14766;51.380;13.762;2023-08-12T01:52:28;22.40;54.50
27266;DHT22;14766;51.380;13.762;2023-08-12T01:54:55;22.40;54.60
27266;DHT22;14766;51.380;13.762;2023-08-12T01:57:23;22.40;54.70
27266;DHT22;14766;51.380;13.762;2023-08-12T01:59:51;22.40;54.70
27266;DHT22;14766;51.380;13.762;2023-08-12T02:02:18;22.40;54.70
27266;DHT22;14766;51.380;13.762;2023-08-12T02:04:45;22.40;54.70
27266;DHT22;14766;51.380;13.762;2023-08-12T02:07:12;22.40;55.40
27266;DHT22;14766;51.380;13.762;2023-08-12T02:09:40;22.40;54.80
27266;DHT22;14766;51.380;13.762;2023-08-12T02:12:07;22.40;54.80
27266;DHT22;14766;51.380;13.762;2023-08-12T02:14:34;22.40;54.90
27266;DHT22;14766;51.380;13.762;2023-08-12T02:17:03;22.40;54.80
27266;DHT22;14766;51.380;13.762;2023-08-12T02:19:33;22.40;54.90
27266;DHT22;14766;51.380;13.762;2023-08-12T02:22:04;22.30;54.80
27266;DHT22;14766;51.380;13.762;2023-08-12T02:24:31;22.30;54.90
27266;DHT22;14766;51.380;13.762;2023-08-12T02:26:58;22.30;54.80
27266;DHT22;14766;51.380;13.762;2023-08-12T02:29:25;22.30;54.90
27266;DHT22;14766;51.380;13.762;2023-08-12T02:31:52;22.30;55.00
27266;DHT22;14766;51.380;13.762;2023-08-12T02:34:19;22.30;55.10
27266;DHT22;14766;51.380;13.762;2023-08-12T02:36:46;22.30;55.10
27266;DHT22;14766;51.380;13.762;2023-08-12T02:39:13;22.20;55.10
27266;DHT22;14766;51.380;13.762;2023-08-12T02:41:40;22.20;55.10
27266;DHT22;14766;51.380;13.762;2023-08-12T02:44:07;22.20;55.10
27266;DHT22;14766;51.380;13.762;2023-08-12T02:46:35;22.20;55.20
27266;DHT22;14766;51.380;13.762;2023-08-12T02:49:02;22.20;55.20
27266;DHT22;14766;51.380;13.762;2023-08-12T02:51:28;22.20;55.30
27266;DHT22;14766;51.380;13.762;2023-08-12T02:53:56;22.10;55.30
27266;DHT22;14766;51.380;13.762;2023-08-12T02:56:23;22.10;55.30
27266;DHT22;14766;51.380;13.762;2023-08-12T02:58:50;22.10;55.40
27266;DHT22;14766;51.380;13.762;2023-08-12T03:01:17;22.10;55.50
27266;DHT22;14766;51.380;13.762;2023-08-12T03:03:44;22.10;55.50
27266;DHT22;14766;51.380;13.762;2023-08-12T03:06:11;22.10;55.50
27266;DHT22;14766;51.380;13.762;2023-08-12T03:08:39;22.00;55.50
27266;DHT22;14766;51.380;13.762;2023-08-12T03:11:07;22.00;55.60
27266;DHT22;14766;51.380;13.762;2023-08-12T03:13:34;22.00;55.70
27266;DHT22;14766;51.380;13.762;2023-08-12T03:16:02;22.00;55.80
27266;DHT22;14766;51.380;13.762;2023-08-12T03:18:31;22.00;55.80
27266;DHT22;14766;51.380;13.762;2023-08-12T03:20:58;22.00;55.80
27266;DHT22;14766;51.380;13.762;2023-08-12T03:23:26;21.90;55.90
27266;DHT22;14766;51.380;13.762;2023-08-12T03:25:54;22.00;55.90
27266;DHT22;14766;51.380;13.762;2023-08-12T03:28:21;21.90;56.00
27266;DHT22;14766;51.380;13.762;2023-08-12T03:31:03;21.90;56.00
27266;DHT22;14766;51.380;13.762;2023-08-12T03:33:44;21.90;56.00
27266;DHT22;14766;51.380;13.762;2023-08-12T03:36:14;21.90;56.00
27266;DHT22;14766;51.380;13.762;2023-08-12T03:38:43;21.90;56.10
27266;DHT22;14766;51.380;13.762;2023-08-12T03:41:17;21.90;56.10
27266;DHT22;14766;51.380;13.762;2023-08-12T03:43:45;21.90;56.10
27266;DHT22;14766;51.380;13.762;2023-08-12T03:46:13;21.90;56.20
27266;DHT22;14766;51.380;13.762;2023-08-12T03:48:41;21.80;56.30
27266;DHT22;14766;51.380;13.762;2023-08-12T03:51:11;21.80;56.40
27266;DHT22;14766;51.380;13.762;2023-08-12T03:53:38;21.80;56.40
27266;DHT22;14766;51.380;13.762;2023-08-12T03:56:06;21.80;56.40
27266;DHT22;14766;51.380;13.762;2023-08-12T03:58:33;21.90;56.50
27266;DHT22;14766;51.380;13.762;2023-08-12T04:01:00;21.90;56.40
27266;DHT22;14766;51.380;13.762;2023-08-12T04:03:30;21.80;56.40
27266;DHT22;14766;51.380;13.762;2023-08-12T04:05:58;21.90;56.40
27266;DHT22;14766;51.380;13.762;2023-08-12T04:08:25;21.90;56.40
27266;DHT22;14766;51.380;13.762;2023-08-12T04:10:52;21.90;56.50
27266;DHT22;14766;51.380;13.762;2023-08-12T04:13:20;21.90;56.50
27266;DHT22;14766;51.380;13.762;2023-08-12T04:15:50;21.90;56.50
27266;DHT22;14766;51.380;13.762;2023-08-12T04:18:18;21.90;56.50
27266;DHT22;14766;51.380;13.762;2023-08-12T04:20:49;21.90;56.50
27266;DHT22;14766;51.380;13.762;2023-08-12T04:23:18;21.90;56.60
27266;DHT22;14766;51.380;13.762;2023-08-12T04:25:49;21.90;56.60
27266;DHT22;14766;51.380;13.762;2023-08-12T04:28:18;21.90;56.70
27266;DHT22;14766;51.380;13.762;2023-08-12T04:30:48;21.90;56.70
27266;DHT22;14766;51.380;13.762;2023-08-12T04:33:20;21.90;56.70
27266;DHT22;14766;51.380;13.762;2023-08-12T04:35:49;22.00;56.80
27266;DHT22;14766;51.380;13.762;2023-08-12T04:38:17;22.00;56.90
27266;DHT22;14766;51.380;13.762;2023-08-12T04:40:49;22.10;56.90
27266;DHT22;14766;51.380;13.762;2023-08-12T04:43:18;22.10;56.90
27266;DHT22;14766;51.380;13.762;2023-08-12T04:45:45;22.10;56.90
27266;DHT22;14766;51.380;13.762;2023-08-12T04:48:15;22.10;57.00
27266;DHT22;14766;51.380;13.762;2023-08-12T04:50:42;22.20;57.00
27266;DHT22;14766;51.380;13.762;2023-08-12T04:53:10;22.20;57.00
27266;DHT22;14766;51.380;13.762;2023-08-12T04:55:39;22.20;56.90
27266;DHT22;14766;51.380;13.762;2023-08-12T04:58:07;22.30;56.90
27266;DHT22;14766;51.380;13.762;2023-08-12T05:00:35;22.30;56.90
27266;DHT22;14766;51.380;13.762;2023-08-12T05:03:02;22.40;57.00
27266;DHT22;14766;51.380;13.762;2023-08-12T05:05:31;22.40;56.90
27266;DHT22;14766;51.380;13.762;2023-08-12T05:07:58;22.50;57.00
27266;DHT22;14766;51.380;13.762;2023-08-12T05:10:27;22.50;56.90
27266;DHT22;14766;51.380;13.762;2023-08-12T05:12:57;22.60;56.90
27266;DHT22;14766;51.380;13.762;2023-08-12T05:15:26;22.60;56.90
27266;DHT22;14766;51.380;13.762;2023-08-12T05:17:54;22.70;56.90
27266;DHT22;14766;51.380;13.762;2023-08-12T05:20:22;22.80;57.00
27266;DHT22;14766;51.380;13.762;2023-08-12T05:22:49;22.80;57.00
27266;DHT22;14766;51.380;13.762;2023-08-12T05:25:16;22.90;57.00
27266;DHT22;14766;51.380;13.762;2023-08-12T05:27:44;23.00;57.10
27266;DHT22;14766;51.380;13.762;2023-08-12T05:30:11;23.00;57.20
27266;DHT22;14766;51.380;13.762;2023-08-12T05:32:39;23.10;57.20
27266;DHT22;14766;51.380;13.762;2023-08-12T05:35:06;23.20;57.10
27266;DHT22;14766;51.380;13.762;2023-08-12T05:37:33;23.30;57.00
27266;DHT22;14766;51.380;13.762;2023-08-12T05:40:00;23.40;56.80
27266;DHT22;14766;51.380;13.762;2023-08-12T05:42:28;23.40;56.60
27266;DHT22;14766;51.380;13.762;2023-08-12T05:44:56;23.50;56.40
27266;DHT22;14766;51.380;13.762;2023-08-12T05:47:23;23.70;56.40
27266;DHT22;14766;51.380;13.762;2023-08-12T05:49:50;23.70;56.30
27266;DHT22;14766;51.380;13.762;2023-08-12T05:52:17;23.90;56.10
27266;DHT22;14766;51.380;13.762;2023-08-12T05:54:45;24.00;56.10
27266;DHT22;14766;51.380;13.762;2023-08-12T05:57:12;24.10;56.10
27266;DHT22;14766;51.380;13.762;2023-08-12T05:59:40;24.20;56.10
27266;DHT22;14766;51.380;13.762;2023-08-12T06:02:08;24.40;56.00
27266;DHT22;14766;51.380;13.762;2023-08-12T06:04:37;24.50;55.40
27266;DHT22;14766;51.380;13.762;2023-08-12T06:07:04;24.60;55.20
27266;DHT22;14766;51.380;13.762;2023-08-12T06:09:32;24.80;54.90
27266;DHT22;14766;51.380;13.762;2023-08-12T06:11:58;24.90;54.90
27266;DHT22;14766;51.380;13.762;2023-08-12T06:14:26;25.00;54.70
27266;DHT22;14766;51.380;13.762;2023-08-12T06:16:53;25.20;54.80
27266;DHT22;14766;51.380;13.762;2023-08-12T06:19:24;25.30;54.60
27266;DHT22;14766;51.380;13.762;2023-08-12T06:21:51;25.40;54.20
27266;DHT22;14766;51.380;13.762;2023-08-12T06:24:18;25.50;54.10
27266;DHT22;14766;51.380;13.762;2023-08-12T06:26:45;25.60;53.80
27266;DHT22;14766;51.380;13.762;2023-08-12T06:29:13;25.70;53.30
27266;DHT22;14766;51.380;13.762;2023-08-12T06:31:40;25.80;53.10
27266;DHT22;14766;51.380;13.762;2023-08-12T06:34:08;25.80;53.10
27266;DHT22;14766;51.380;13.762;2023-08-12T06:36:35;25.90;52.70
27266;DHT22;14766;51.380;13.762;2023-08-12T06:39:02;26.00;52.40
27266;DHT22;14766;51.380;13.762;2023-08-12T06:41:30;26.00;52.20
27266;DHT22;14766;51.380;13.762;2023-08-12T06:43:57;26.00;52.20
27266;DHT22;14766;51.380;13.762;2023-08-12T06:46:24;26.10;52.10
27266;DHT22;14766;51.380;13.762;2023-08-12T06:48:51;26.20;52.10
27266;DHT22;14766;51.380;13.762;2023-08-12T06:51:18;26.30;52.10
27266;DHT22;14766;51.380;13.762;2023-08-12T06:53:45;26.30;52.00
27266;DHT22;14766;51.380;13.762;2023-08-12T06:56:12;26.50;52.40
27266;DHT22;14766;51.380;13.762;2023-08-12T06:58:39;26.60;52.60
27266;DHT22;14766;51.380;13.762;2023-08-12T07:01:06;26.80;52.90
27266;DHT22;14766;51.380;13.762;2023-08-12T07:03:34;26.90;52.70
27266;DHT22;14766;51.380;13.762;2023-08-12T07:06:01;27.10;53.00
27266;DHT22;14766;51.380;13.762;2023-08-12T07:08:28;27.40;52.90
27266;DHT22;14766;51.380;13.762;2023-08-12T07:10:55;27.70;52.30
27266;DHT22;14766;51.380;13.762;2023-08-12T07:13:22;28.00;51.70
27266;DHT22;14766;51.380;13.762;2023-08-12T07:15:49;28.30;50.20
27266;DHT22;14766;51.380;13.762;2023-08-12T07:18:16;28.50;49.00
27266;DHT22;14766;51.380;13.762;2023-08-12T07:20:43;28.70;49.40
27266;DHT22;14766;51.380;13.762;2023-08-12T07:23:10;28.90;48.80
27266;DHT22;14766;51.380;13.762;2023-08-12T07:25:38;29.10;47.70
27266;DHT22;14766;51.380;13.762;2023-08-12T07:28:05;29.30;46.70
27266;DHT22;14766;51.380;13.762;2023-08-12T07:30:34;29.50;47.40
27266;DHT22;14766;51.380;13.762;2023-08-12T07:33:02;29.70;47.60
27266;DHT22;14766;51.380;13.762;2023-08-12T07:35:29;30.00;47.50
27266;DHT22;14766;51.380;13.762;2023-08-12T07:37:56;30.20;46.00
27266;DHT22;14766;51.380;13.762;2023-08-12T07:40:23;30.50;45.90
27266;DHT22;14766;51.380;13.762;2023-08-12T07:42:50;30.70;45.30
27266;DHT22;14766;51.380;13.762;2023-08-12T07:45:17;30.90;44.60
27266;DHT22;14766;51.380;13.762;2023-08-12T07:47:44;31.20;44.30
27266;DHT22;14766;51.380;13.762;2023-08-12T07:50:11;31.40;44.30
27266;DHT22;14766;51.380;13.762;2023-08-12T07:52:39;31.70;44.00
27266;DHT22;14766;51.380;13.762;2023-08-12T07:55:06;31.90;43.00
27266;DHT22;14766;51.380;13.762;2023-08-12T07:57:33;32.10;42.60
27266;DHT22;14766;51.380;13.762;2023-08-12T08:00:00;32.30;42.20
27266;DHT22;14766;51.380;13.762;2023-08-12T08:02:30;32.60;41.40
27266;DHT22;14766;51.380;13.762;2023-08-12T08:04:58;32.80;41.10
27266;DHT22;14766;51.380;13.762;2023-08-12T08:07:26;33.00;39.80
27266;DHT22;14766;51.380;13.762;2023-08-12T08:09:53;33.20;40.00
27266;DHT22;14766;51.380;13.762;2023-08-12T08:12:20;33.30;38.80
27266;DHT22;14766;51.380;13.762;2023-08-12T08:14:47;33.50;38.70
27266;DHT22;14766;51.380;13.762;2023-08-12T08:17:14;33.70;38.40
27266;DHT22;14766;51.380;13.762;2023-08-12T08:19:41;33.80;39.00
27266;DHT22;14766;51.380;13.762;2023-08-12T08:22:08;33.90;38.00
27266;DHT22;14766;51.380;13.762;2023-08-12T08:24:36;34.00;37.90
27266;DHT22;14766;51.380;13.762;2023-08-12T08:27:03;34.10;37.40
27266;DHT22;14766;51.380;13.762;2023-08-12T08:29:31;34.10;37.60
27266;DHT22;14766;51.380;13.762;2023-08-12T08:31:58;34.10;36.80
27266;DHT22;14766;51.380;13.762;2023-08-12T08:34:25;34.10;36.30
27266;DHT22;14766;51.380;13.762;2023-08-12T08:36:52;34.10;37.00
27266;DHT22;14766;51.380;13.762;2023-08-12T08:39:22;34.00;37.00
27266;DHT22;14766;51.380;13.762;2023-08-12T08:41:49;34.10;37.00
27266;DHT22;14766;51.380;13.762;2023-08-12T08:44:17;34.10;36.50
27266;DHT22;14766;51.380;13.762;2023-08-12T08:46:53;34.10;36.40
27266;DHT22;14766;51.380;13.762;2023-08-12T08:49:21;34.10;36.60
27266;DHT22;14766;51.380;13.762;2023-08-12T08:51:51;34.10;37.10
27266;DHT22;14766;51.380;13.762;2023-08-12T08:54:19;34.20;36.80
27266;DHT22;14766;51.380;13.762;2023-08-12T08:56:48;34.20;36.90
27266;DHT22;14766;51.380;13.762;2023-08-12T08:59:30;34.20;36.30
27266;DHT22;14766;51.380;13.762;2023-08-12T09:01:59;34.20;36.40
27266;DHT22;14766;51.380;13.762;2023-08-12T09:04:28;34.30;36.90
27266;DHT22;14766;51.380;13.762;2023-08-12T09:06:56;34.30;37.00
27266;DHT22;14766;51.380;13.762;2023-08-12T09:09:26;34.50;36.50
27266;DHT22;14766;51.380;13.762;2023-08-12T09:11:54;34.60;36.40
27266;DHT22;14766;51.380;13.762;2023-08-12T09:14:22;34.70;36.50
27266;DHT22;14766;51.380;13.762;2023-08-12T09:16:51;34.90;36.60
27266;DHT22;14766;51.380;13.762;2023-08-12T09:19:20;35.10;36.30
27266;DHT22;14766;51.380;13.762;2023-08-12T09:21:54;35.30;36.00
27266;DHT22;14766;51.380;13.762;2023-08-12T09:24:26;35.50;35.50
27266;DHT22;14766;51.380;13.762;2023-08-12T09:26:54;35.60;35.40
27266;DHT22;14766;51.380;13.762;2023-08-12T09:29:32;35.80;35.20
27266;DHT22;14766;51.380;13.762;2023-08-12T09:32:13;36.10;35.10
27266;DHT22;14766;51.380;13.762;2023-08-12T09:34:50;36.30;33.60
27266;DHT22;14766;51.380;13.762;2023-08-12T09:37:19;36.40;33.10
27266;DHT22;14766;51.380;13.762;2023-08-12T09:39:47;36.40;33.20
27266;DHT22;14766;51.380;13.762;2023-08-12T09:42:16;36.50;33.20
27266;DHT22;14766;51.380;13.762;2023-08-12T09:44:44;36.50;32.80
27266;DHT22;14766;51.380;13.762;2023-08-12T09:47:11;36.40;32.10
27266;DHT22;14766;51.380;13.762;2023-08-12T09:49:39;36.30;32.40
27266;DHT22;14766;51.380;13.762;2023-08-12T09:52:07;36.20;32.30
27266;DHT22;14766;51.380;13.762;2023-08-12T09:54:35;36.10;32.20
27266;DHT22;14766;51.380;13.762;2023-08-12T09:57:04;36.00;32.50
27266;DHT22;14766;51.380;13.762;2023-08-12T09:59:37;35.90;33.00
27266;DHT22;14766;51.380;13.762;2023-08-12T10:02:05;35.90;33.10
27266;DHT22;14766;51.380;13.762;2023-08-12T10:04:39;35.90;32.90
27266;DHT22;14766;51.380;13.762;2023-08-12T10:07:12;35.80;32.50
27266;DHT22;14766;51.380;13.762;2023-08-12T10:09:43;35.80;32.30
27266;DHT22;14766;51.380;13.762;2023-08-12T10:12:11;35.70;32.20
27266;DHT22;14766;51.380;13.762;2023-08-12T10:14:44;35.60;32.20
27266;DHT22;14766;51.380;13.762;2023-08-12T10:17:12;35.60;32.60
27266;DHT22;14766;51.380;13.762;2023-08-12T10:19:44;35.60;32.50
27266;DHT22;14766;51.380;13.762;2023-08-12T10:22:11;35.50;32.40
27266;DHT22;14766;51.380;13.762;2023-08-12T10:24:39;35.40;32.60
27266;DHT22;14766;51.380;13.762;2023-08-12T10:27:08;35.40;32.60
27266;DHT22;14766;51.380;13.762;2023-08-12T10:29:38;35.30;32.40
27266;DHT22;14766;51.380;13.762;2023-08-12T10:32:05;35.20;32.50
27266;DHT22;14766;51.380;13.762;2023-08-12T10:34:33;35.20;32.60
27266;DHT22;14766;51.380;13.762;2023-08-12T10:37:03;35.10;32.10
27266;DHT22;14766;51.380;13.762;2023-08-12T10:39:33;34.90;32.20
27266;DHT22;14766;51.380;13.762;2023-08-12T10:42:01;34.80;32.10
27266;DHT22;14766;51.380;13.762;2023-08-12T10:44:51;34.70;33.20
27266;DHT22;14766;51.380;13.762;2023-08-12T10:47:19;34.50;32.20
27266;DHT22;14766;51.380;13.762;2023-08-12T10:49:50;34.40;32.70
27266;DHT22;14766;51.380;13.762;2023-08-12T10:52:29;34.40;33.20
27266;DHT22;14766;51.380;13.762;2023-08-12T10:57:43;34.10;33.60
27266;DHT22;14766;51.380;13.762;2023-08-12T11:00:13;34.10;33.80
27266;DHT22;14766;51.380;13.762;2023-08-12T11:02:44;33.90;34.00
27266;DHT22;14766;51.380;13.762;2023-08-12T11:05:13;33.90;33.80
27266;DHT22;14766;51.380;13.762;2023-08-12T11:07:43;33.80;34.00
27266;DHT22;14766;51.380;13.762;2023-08-12T11:10:19;33.70;34.10
27266;DHT22;14766;51.380;13.762;2023-08-12T11:15:40;33.60;34.80
27266;DHT22;14766;51.380;13.762;2023-08-12T11:18:19;33.50;34.70
27266;DHT22;14766;51.380;13.762;2023-08-12T11:20:48;33.40;34.80
27266;DHT22;14766;51.380;13.762;2023-08-12T11:23:16;33.40;34.90
27266;DHT22;14766;51.380;13.762;2023-08-12T11:25:44;33.40;35.10
27266;DHT22;14766;51.380;13.762;2023-08-12T11:28:18;33.30;35.00
27266;DHT22;14766;51.380;13.762;2023-08-12T11:30:48;33.20;35.20
27266;DHT22;14766;51.380;13.762;2023-08-12T11:33:16;33.10;35.40
27266;DHT22;14766;51.380;13.762;2023-08-12T11:35:47;33.10;35.30
27266;DHT22;14766;51.380;13.762;2023-08-12T11:38:15;33.00;35.20
27266;DHT22;14766;51.380;13.762;2023-08-12T11:40:43;33.00;35.40
27266;DHT22;14766;51.380;13.762;2023-08-12T11:43:10;32.90;35.30
27266;DHT22;14766;51.380;13.762;2023-08-12T11:45:41;32.80;36.00
27266;DHT22;14766;51.380;13.762;2023-08-12T11:48:09;32.80;35.20
27266;DHT22;14766;51.380;13.762;2023-08-12T11:50:37;32.80;35.50
27266;DHT22;14766;51.380;13.762;2023-08-12T11:53:04;32.70;35.60
27266;DHT22;14766;51.380;13.762;2023-08-12T11:55:31;32.70;35.30
27266;DHT22;14766;51.380;13.762;2023-08-12T11:57:58;32.60;35.10
27266;DHT22;14766;51.380;13.762;2023-08-12T12:00:28;32.60;35.40
27266;DHT22;14766;51.380;13.762;2023-08-12T12:02:56;32.50;35.40
27266;DHT22;14766;51.380;13.762;2023-08-12T12:05:26;32.50;35.40
27266;DHT22;14766;51.380;13.762;2023-08-12T12:07:54;32.50;35.50
27266;DHT22;14766;51.380;13.762;2023-08-12T12:10:28;32.50;35.70
27266;DHT22;14766;51.380;13.762;2023-08-12T12:13:03;32.40;35.40
27266;DHT22;14766;51.380;13.762;2023-08-12T12:15:37;32.30;35.40
27266;DHT22;14766;51.380;13.762;2023-08-12T12:18:13;32.30;35.70
27266;DHT22;14766;51.380;13.762;2023-08-12T12:20:59;32.30;35.60
27266;DHT22;14766;51.380;13.762;2023-08-12T12:23:30;32.30;35.80
27266;DHT22;14766;51.380;13.762;2023-08-12T12:26:02;32.30;35.80
27266;DHT22;14766;51.380;13.762;2023-08-12T12:28:29;32.20;35.90
27266;DHT22;14766;51.380;13.762;2023-08-12T12:30:57;32.20;36.00
27266;DHT22;14766;51.380;13.762;2023-08-12T12:33:25;32.20;36.40
27266;DHT22;14766;51.380;13.762;2023-08-12T12:35:54;32.20;36.80
27266;DHT22;14766;51.380;13.762;2023-08-12T12:38:26;32.20;36.80
27266;DHT22;14766;51.380;13.762;2023-08-12T12:40:53;32.20;36.90
27266;DHT22;14766;51.380;13.762;2023-08-12T12:43:20;32.30;37.20
27266;DHT22;14766;51.380;13.762;2023-08-12T12:45:47;32.30;37.30
27266;DHT22;14766;51.380;13.762;2023-08-12T12:48:14;32.40;37.30
27266;DHT22;14766;51.380;13.762;2023-08-12T12:50:41;32.40;37.00
27266;DHT22;14766;51.380;13.762;2023-08-12T12:53:09;32.50;37.80
27266;DHT22;14766;51.380;13.762;2023-08-12T12:55:37;32.60;37.20
27266;DHT22;14766;51.380;13.762;2023-08-12T12:58:05;32.60;37.00
27266;DHT22;14766;51.380;13.762;2023-08-12T13:00:34;32.70;37.00
27266;DHT22;14766;51.380;13.762;2023-08-12T13:03:01;32.70;36.80
27266;DHT22;14766;51.380;13.762;2023-08-12T13:05:29;32.70;36.80
27266;DHT22;14766;51.380;13.762;2023-08-12T13:07:56;32.70;36.60
27266;DHT22;14766;51.380;13.762;2023-08-12T13:10:24;32.70;36.70
27266;DHT22;14766;51.380;13.762;2023-08-12T13:12:51;32.70;37.10
27266;DHT22;14766;51.380;13.762;2023-08-12T13:15:18;32.70;36.90
27266;DHT22;14766;51.380;13.762;2023-08-12T13:17:46;32.70;37.00
27266;DHT22;14766;51.380;13.762;2023-08-12T13:20:13;32.60;37.00
27266;DHT22;14766;51.380;13.762;2023-08-12T13:22:40;32.60;37.00
27266;DHT22;14766;51.380;13.762;2023-08-12T13:25:07;32.60;37.30
27266;DHT22;14766;51.380;13.762;2023-08-12T13:27:35;32.50;37.40
27266;DHT22;14766;51.380;13.762;2023-08-12T13:30:02;32.50;37.70
27266;DHT22;14766;51.380;13.762;2023-08-12T13:32:30;32.40;37.70
27266;DHT22;14766;51.380;13.762;2023-08-12T13:34:58;32.40;37.80
27266;DHT22;14766;51.380;13.762;2023-08-12T13:37:25;32.40;37.90
27266;DHT22;14766;51.380;13.762;2023-08-12T13:39:52;32.40;38.00
27266;DHT22;14766;51.380;13.762;2023-08-12T13:42:19;32.30;38.00
27266;DHT22;14766;51.380;13.762;2023-08-12T13:44:47;32.30;38.10
27266;DHT22;14766;51.380;13.762;2023-08-12T13:47:14;32.30;38.20
27266;DHT22;14766;51.380;13.762;2023-08-12T13:49:41;32.30;38.30
27266;DHT22;14766;51.380;13.762;2023-08-12T13:52:09;32.30;38.60
27266;DHT22;14766;51.380;13.762;2023-08-12T13:54:36;32.30;38.60
27266;DHT22;14766;51.380;13.762;2023-08-12T13:57:04;32.20;38.60
27266;DHT22;14766;51.380;13.762;2023-08-12T13:59:31;32.20;38.70
27266;DHT22;14766;51.380;13.762;2023-08-12T14:01:58;32.10;39.30
27266;DHT22;14766;51.380;13.762;2023-08-12T14:04:25;32.10;38.60
27266;DHT22;14766;51.380;13.762;2023-08-12T14:06:53;32.10;38.60
27266;DHT22;14766;51.380;13.762;2023-08-12T14:09:21;32.10;38.70
27266;DHT22;14766;51.380;13.762;2023-08-12T14:11:48;32.10;38.90
27266;DHT22;14766;51.380;13.762;2023-08-12T14:14:16;32.10;39.00
27266;DHT22;14766;51.380;13.762;2023-08-12T14:16:43;32.10;39.00
27266;DHT22;14766;51.380;13.762;2023-08-12T14:19:10;32.10;39.20
27266;DHT22;14766;51.380;13.762;2023-08-12T14:21:38;32.10;39.20
27266;DHT22;14766;51.380;13.762;2023-08-12T14:24:05;32.20;39.30
27266;DHT22;14766;51.380;13.762;2023-08-12T14:26:32;32.30;39.30
27266;DHT22;14766;51.380;13.762;2023-08-12T14:29:00;32.30;39.00
27266;DHT22;14766;51.380;13.762;2023-08-12T14:31:27;32.40;39.10
27266;DHT22;14766;51.380;13.762;2023-08-12T14:33:54;32.50;38.80
27266;DHT22;14766;51.380;13.762;2023-08-12T14:36:23;32.60;38.20
27266;DHT22;14766;51.380;13.762;2023-08-12T14:38:50;32.60;37.60
27266;DHT22;14766;51.380;13.762;2023-08-12T14:41:17;32.60;37.90
27266;DHT22;14766;51.380;13.762;2023-08-12T14:43:44;32.70;38.90
27266;DHT22;14766;51.380;13.762;2023-08-12T14:46:12;32.70;38.20
27266;DHT22;14766;51.380;13.762;2023-08-12T14:48:39;32.70;38.20
27266;DHT22;14766;51.380;13.762;2023-08-12T14:51:06;32.80;37.60
27266;DHT22;14766;51.380;13.762;2023-08-12T14:53:33;32.70;37.20
27266;DHT22;14766;51.380;13.762;2023-08-12T14:56:00;32.80;37.00
27266;DHT22;14766;51.380;13.762;2023-08-12T14:58:28;32.70;36.50
27266;DHT22;14766;51.380;13.762;2023-08-12T15:00:55;32.70;36.70
27266;DHT22;14766;51.380;13.762;2023-08-12T15:03:23;32.80;36.80
27266;DHT22;14766;51.380;13.762;2023-08-12T15:06:02;32.70;36.60
27266;DHT22;14766;51.380;13.762;2023-08-12T15:08:31;32.70;36.40
27266;DHT22;14766;51.380;13.762;2023-08-12T15:10:59;32.70;36.10
27266;DHT22;14766;51.380;13.762;2023-08-12T15:13:26;32.70;36.10
27266;DHT22;14766;51.380;13.762;2023-08-12T15:15:53;32.70;36.60
27266;DHT22;14766;51.380;13.762;2023-08-12T15:18:21;32.70;36.60
27266;DHT22;14766;51.380;13.762;2023-08-12T15:20:48;32.60;36.70
27266;DHT22;14766;51.380;13.762;2023-08-12T15:23:15;32.60;37.10
27266;DHT22;14766;51.380;13.762;2023-08-12T15:25:45;32.60;37.50
27266;DHT22;14766;51.380;13.762;2023-08-12T15:28:13;32.60;37.80
27266;DHT22;14766;51.380;13.762;2023-08-12T15:30:40;32.60;37.80
27266;DHT22;14766;51.380;13.762;2023-08-12T15:33:07;32.60;38.00
27266;DHT22;14766;51.380;13.762;2023-08-12T15:35:34;32.60;37.70